Hermitage, TN (37076)

5:45 PM CDT on March 30, 2017 (GMT -0500)
Hermitage - Copperline Ranch | | Change Station

Elev 528 ft 36.18 °N, 86.63 °W | Updated 15 seconds ago

Mostly Cloudy
Mostly Cloudy
76.1 °F
Feels Like 78 °F
N
11.9
Wind Variable Wind from South
Gusts 15.0 mph

Today
High -- | Low -- °F
--% Chance of Precip.
Yesterday
High -- | Low -- °F
Precip. -- in
Pressure 29.62 in
Visibility 10.0 miles
Clouds Mostly Cloudy 6000 ft
Overcast 25000 ft
Heat Index 78 °F
Dew Point 51 °F
Humidity 42%
Rainfall 0.00 in
Snow Depth Not available.
6:35 AM 7:07 PM
Waxing Crescent, 11% visible
METAR KBNA 302153Z 21014G27KT 10SM BKN060 OVC250 26/12 A2964 RMK AO2 PK WND 21027/2147 SLP029 T02560117
Pressure 29.62 in
Visibility 10.0 miles
Clouds Mostly Cloudy 6000 ft
Overcast 25000 ft
Heat Index 78 °F
Dew Point 51 °F
Humidity 42%
Rainfall 0.00 in
Snow Depth Not available.
6:35 AM 7:07 PM
Waxing Crescent, 11% visible
METAR KBNA 302153Z 21014G27KT 10SM BKN060 OVC250 26/12 A2964 RMK AO2 PK WND 21027/2147 SLP029 T02560117

Get Severe Weather Alerts

Thanks for signing up!

Be on the lookout for a verification email in your inbox.

You'll start receiving the daily forecast at 8 AM.

×

10-Day Weather Forecast

Almanac

Astronomy

Mar. 30, 2017 Rise Set
Actual Time
Civil Twilight
Nautical Twilight
Astronomical Twilight
Moon
Length of Visible Light
Length of Day
Tomorrow will be .
, % of the Moon is Illuminated

Today's Extremes

State Highs State Lows

Community

WunderPhotos

Upload Photos

1,962,540 photos uploaded!

WunderBlog® & News

Nearby

Air Quality

  Air Quality AQ Index Pollutant
Not available.

Snow Depth

Station Depth Elevation

Earthquake Activity

City Distance Mag. Time & Date
Minimum magnitude displayed is 2.5.

Earthquake Activity

City Distance Mag. Time & Date
Minimum magnitude displayed is 2.5.

Coastal Water Temperatures

Place Temperature

Stations

Nearby Weather Stations

Station Location Temp. Windchill Dew Point Humidity Wind Precip. Elev Updated Type
                   

Watches & Warnings

There are currently no watches in effect.